• Join FlightAware (Why Join?)
  • Login
  • US Flag 
04:52AM EDT


 

Airport Tracker/Info


-or-


 

Live Flight TrackerFlight Track Log ✈ UAL3773 ✈ 13-Apr-2013 ✈ KORD - KPVD

Flight Track Log - Related Links

Times and Time Zones

All times are in EDT time to prevent confusion due to time zone crossing. See the UAL3773 flight status page for this flight to view local times or setup timezone preferences in your user account.

Time Position Orientation Groundspeed Altitude Reporting Facility
EDT Latitude Longitude Course Direction KTS MPH feet Rate Location/Type
02:18PM 42.0167 -87.9500 77° East 167 192 2,200  Level Chicago TRACON
02:19PM 42.0667 -87.9333 14° North 222 255 4,800 2,160 Climbing Chicago TRACON
02:21PM 42.0529 -87.3477 78° East  Level FlightAware Approximate
02:22PM 42.0816 -87.1614 78° East  Level FlightAware Approximate
02:22PM 42.1208 -87.7144 71° East 309 356 9,700  Level Chicago Center
02:23PM 42.1097 -86.9752 77° East  Level FlightAware Approximate
02:23PM 42.1278 -87.5667 86° East 327 376 12,400  Level Chicago Center
02:24PM 42.1250 -87.4344 92° East 349 402 14,800 1,620 Climbing Chicago Center
02:25PM 42.1194 -87.2872 93° East 387 445 15,800 1,620 Climbing Chicago Center
02:26PM 42.1144 -87.1272 92° East 422 486 18,200 2,040 Climbing Chicago Center
02:27PM 42.1150 -86.9664 90° East 430 495 20,100 1,740 Climbing Chicago Center
02:28PM 42.1217 -86.8011 87° East 441 507 21,800 1,740 Climbing Chicago Center
02:29PM 42.1278 -86.6247 87° East 447 514 23,800 1,560 Climbing Chicago Center
02:30PM 42.1333 -86.4522 87° East 457 526 25,100 1,020 Climbing Chicago Center
02:31PM 42.1394 -86.2739 87° East 472 543 26,000 900 Climbing Chicago Center
02:32PM 42.1442 -86.0875 88° East 493 567 27,000 1,140 Climbing Chicago Center
02:33PM 42.1422 -85.8825 91° East 492 566 28,400 1,140 Climbing Chicago Center
02:34PM 42.1408 -85.6933 91° East 502 578 29,400 780 Climbing Chicago Center
02:35PM 42.1397 -85.5014 90° East 510 587 30,100 540 Climbing Chicago Center
02:36PM 42.1383 -85.2967 90° East 521 600 30,500 1,380 Climbing Cleveland Center
02:37PM 42.1372 -85.1144 90° East 508 585 32,800 1,560 Climbing Cleveland Center
02:38PM 42.1342 -84.9236 91° East 508 585 33,700 1,080 Climbing Cleveland Center
02:39PM 42.1308 -84.7331 91° East 508 585 35,000 840 Climbing Cleveland Center
02:40PM 42.1381 -84.5317 87° East 496 571 35,400 480 Climbing Cleveland Center
02:41PM 42.1550 -84.3394 83° East 496 571 36,000 660 Climbing Cleveland Center
02:42PM 42.1694 -84.1442 84° East 508 585 36,800 480 Climbing Cleveland Center
02:43PM 42.1836 -83.9517 84° East 513 590 37,000 60 Climbing Cleveland Center
02:44PM 42.1997 -83.7506 84° East 518 596 37,000  Level Cleveland Center
02:45PM 42.2156 -83.5494 84° East 525 604 37,000  Level Cleveland Center
02:46PM 42.2292 -83.3425 85° East 546 628 37,000  Level Cleveland Center
02:47PM 42.2417 -83.1525 85° East 553 636 37,000  Level Cleveland Center
02:48PM 42.2567 -82.9397 84° East 558 642 37,000  Level Cleveland Center
02:49PM 42.2714 -82.7297 85° East 563 648 37,000  Level Cleveland Center
02:50PM 42.2856 -82.5142 85° East 563 648 37,000  Level Cleveland Center
02:51PM 42.2992 -82.3067 85° East 563 648 37,000  Level Cleveland Center
02:52PM 42.3147 -82.0967 84° East 563 648 37,000  Level Cleveland Center
02:53PM 42.3256 -81.8864 86° East 556 640 37,000  Level Cleveland Center
02:54PM 42.3383 -81.6786 85° East 556 640 37,000  Level Cleveland Center
02:55PM 42.3506 -81.4514 86° East 551 634 37,000  Level Cleveland Center
02:56PM 42.3625 -81.2436 85° East 551 634 37,000  Level Cleveland Center
02:57PM 42.3717 -81.0356 87° East 559 643 37,000  Level Cleveland Center
02:58PM 42.3828 -80.8278 86° East 553 636 37,000  Level Cleveland Center
02:59PM 42.3936 -80.6169 86° East 553 636 37,000  Level Cleveland Center
03:00PM 42.4039 -80.4061 86° East 552 635 37,000  Level Cleveland Center
03:02PM 42.4214 -80.0122 86° East 559 643 37,000  Level Cleveland Center
03:03PM 42.4303 -79.7786 87° East 554 638 37,000  Level Cleveland Center
03:04PM 42.4369 -79.5703 87° East 554 638 37,000  Level Cleveland Center
03:05PM 42.4475 -79.3592 86° East 554 638 37,000  Level Cleveland Center
03:06PM 42.4556 -79.1481 87° East 554 638 37,000  Level Cleveland Center
03:07PM 42.4631 -78.9367 87° East 554 638 37,000  Level Cleveland Center
03:08PM 42.4683 -78.7256 88° East 554 638 37,000  Level Cleveland Center
03:09PM 42.4750 -78.5169 87° East 554 638 37,000  Level Cleveland Center
03:10PM 42.4817 -78.3111 87° East 554 638 37,000  Level Cleveland Center
03:11PM 42.4878 -78.0997 88° East 554 638 37,000  Level Cleveland Center
03:12PM 42.4914 -77.8911 89° East 554 638 37,000  Level Cleveland Center
03:13PM 42.4972 -77.7050 88° East 554 638 37,000  Level Cleveland Center
03:14PM 42.5000 -77.4908 89° East 554 638 37,000  Level Cleveland Center
03:17PM 42.5094 -76.9331 88° East 581 669 37,000  Level Boston Center
03:18PM 42.5119 -76.7642 89° East 575 662 37,000  Level Boston Center
03:19PM 42.5150 -76.5136 89° East 565 650 37,000  Level Boston Center
03:20PM 42.5161 -76.3022 90° East 560 644 37,000  Level Boston Center
03:21PM 42.5022 -76.0931 95° East 555 639 37,000 -420 Level Boston Center
03:22PM 42.4881 -75.8781 95° East 561 646 36,200 -1,020 Descending Boston Center
03:23PM 42.4756 -75.6606 94° East 567 652 35,100 -1,140 Descending Boston Center
03:24PM 42.4586 -75.4486 96° East 567 652 34,000 -1,140 Descending Boston Center
03:25PM 42.4431 -75.2339 96° East 567 652 32,900 -1,260 Descending Boston Center
03:26PM 42.4258 -74.9969 96° East 577 664 31,600 -1,200 Descending Boston Center
03:27PM 42.4094 -74.7853 96° East 577 664 30,500 -1,140 Descending Boston Center
03:28PM 42.3928 -74.5767 96° East 577 664 29,400 -780 Descending Boston Center
03:29PM 42.3778 -74.3708 96° East 565 650 29,000 -540 Descending Boston Center
03:30PM 42.3622 -74.1708 96° East 551 634 28,400 -1,080 Descending Boston Center
03:31PM 42.3442 -73.9683 97° East 538 619 26,900 -1,560 Descending Boston Center
03:32PM 42.3258 -73.7711 97° East 538 619 25,400 -1,440 Descending Boston Center
03:33PM 42.3133 -73.5883 95° East 538 619 24,100 -1,440 Descending Boston Center
03:34PM 42.2942 -73.3972 98° East 538 619 22,500 -1,620 Descending Boston Center
03:35PM 42.2728 -73.1892 98° East 516 594 20,900 -1,560 Descending Boston Center
03:36PM 42.1986 -73.0425 124° Southeast 466 536 19,400 -960 Descending Boston Center
03:37PM 42.1200 -72.9356 135° Southeast 452 520 19,000 -240 Descending Boston Center
03:38PM 42.0247 -72.8033 134° Southeast 447 514 19,000 -300 Level Boston Center
03:39PM 41.9353 -72.6828 135° Southeast 447 514 18,500 -1,260 Descending Boston Center
03:40PM 41.8647 -72.5517 126° Southeast 441 507 16,500 -1,980 Descending Boston Center
03:41PM 41.7919 -72.4233 127° Southeast 435 501 14,600 -1,860 Descending Boston Center
03:41PM 41.7417 -72.3317 126° Southeast 419 482 13,300 -1,800 Descending Boston Center
03:42PM 41.7000 -72.2567 127° Southeast 412 474 12,200 -1,860 Descending Boston Center
03:43PM 41.6561 -72.1789 127° Southeast 416 479 11,100 -1,200 Descending Boston Center
03:43PM 41.6289 -72.1319 128° Southeast 406 467 11,000 -120 Descending Boston Center
03:44PM 41.5911 -72.0569 124° Southeast 411 473 11,000 -240 Level Boston Center
03:44PM 41.5617 -72.0128 132° Southeast 377 434 10,800 -900 Descending Boston Center
03:45PM 41.5428 -71.9436 110° East 371 427 10,100 -1,200 Descending Boston Center
03:45PM 41.5406 -71.8939 93° East 324 373 9,600 -1,500 Descending Boston Center
03:46PM 41.5503 -71.7828 83° East 307 353 8,000 -1,680 Descending Boston Center
03:47PM 41.5517 -71.6717 89° East 303 349 6,200 -1,680 Descending Boston Center
03:48PM 41.5717 -71.5522 77° East 272 313 4,500 -1,680 Descending Boston Center
03:49PM 41.5856 -71.4603 79° East 268 308 2,700 -1,380 Descending Boston Center
03:50PM 41.6203 -71.3903 56° Northeast 245 282 1,900 -900 Descending Boston Center